Orel 5 — EMFH — position and weather

sailwx.info

Track history (hours):
 
Tides and Currents Weather Stations Pressure Air Temp Water Temp Dewpoint Dewpoint Depression Visibility Wind Speed Wind Dir Waves Ship Positions

Orel 5

Last reported at 2014-Oct-18 03:33 UTC. Time now 2014-Oct-20 04:35 UTC.
Position N 46°35' E 031°42'.

Length 108 m; draft 3.6 m.

Type: Cargo ship. MMSI: 272059000.

Date/timePositionNaut miles runAvg speedWind from/ knotsBaromVisibWave heightAir tempDewpointWater temp
2014-Oct-18 03:33N 46°35' E 031°42'8 7.7
2014-Oct-18 02:33N 46°35' E 031°53'7 7.4
2014-Oct-18 01:33N 46°32' E 032°04'8 7.7
2014-Oct-18 00:33N 46°33' E 032°15'138 3.4
2014-Oct-16 08:23N 47°43' E 035°09'5 6.3
2014-Oct-16 07:33N 47°48' E 035°10'3 3.3
2014-Oct-16 06:33N 47°50' E 035°06'2 1.6
2014-Oct-16 05:33N 47°52' E 035°05'2 1.8
2014-Oct-16 04:31N 47°54' E 035°06'0 0.0
2014-Oct-16 03:31N 47°54' E 035°06'0 0.0
2014-Oct-16 02:30N 47°54' E 035°06'0 0.0
2014-Oct-16 01:30N 47°54' E 035°06'0 0.0
2014-Oct-16 00:30N 47°54' E 035°06'0 0.0
2014-Oct-15 23:30N 47°54' E 035°06'0 0.0
2014-Oct-15 22:30N 47°54' E 035°06'0 0.0
2014-Oct-15 21:30N 47°54' E 035°06'0 0.0
2014-Oct-15 20:30N 47°54' E 035°06'0 0.0
2014-Oct-15 19:30N 47°54' E 035°06'0 0.0
2014-Oct-15 18:30N 47°54' E 035°06'0 0.0
2014-Oct-15 17:30N 47°54' E 035°06'0 0.0
2014-Oct-15 16:30N 47°54' E 035°06'0 0.1
2014-Oct-15 15:33N 47°54' E 035°06'  
2014-Oct-11 07:33N 47°53' E 035°06'1 1.1
2014-Oct-11 06:33N 47°52' E 035°05'1 1.5
2014-Oct-11 05:33N 47°50' E 035°06'3 2.8
2014-Oct-11 04:29N 47°49' E 035°09'0 0.1
2014-Oct-11 03:29N 47°49' E 035°09'0 0.2
2014-Oct-11 02:28N 47°48' E 035°09'0 0.0
2014-Oct-11 01:28N 47°48' E 035°09'0 0.0
2014-Oct-11 00:28N 47°48' E 035°09'0 0.0
2014-Oct-10 23:28N 47°48' E 035°09'0 0.0
2014-Oct-10 22:28N 47°48' E 035°09'0 0.0
2014-Oct-10 21:28N 47°48' E 035°09'0 0.0
2014-Oct-10 20:28N 47°48' E 035°09'0 0.0
2014-Oct-10 19:33N 47°48' E 035°09'6 5.6
2014-Oct-10 18:33N 47°43' E 035°08'144 4.5
2014-Oct-09 10:33N 46°32' E 032°03'8 8.3
2014-Oct-09 09:34N 46°35' E 031°52'34 7.7
2014-Oct-09 05:10N 46°34' E 031°03'  
Track history (hours):
 
Tides and Currents Weather Stations Pressure Air Temp Water Temp Dewpoint Dewpoint Depression Visibility Wind Speed Wind Dir Waves Ship Positions

Orel 5

Last reported at 2014-Oct-18 03:33 UTC. Time now 2014-Oct-20 04:35 UTC.
Position N 46°35' E 031°42'.

Length 108 m; draft 3.6 m.

Type: Cargo ship. MMSI: 272059000.

Date/timePositionNaut miles runAvg speedWind from/ knotsBaromVisibWave heightAir tempDewpointWater temp
2014-Oct-18 03:33N 46°35' E 031°42'8 7.7
2014-Oct-18 02:33N 46°35' E 031°53'7 7.4
2014-Oct-18 01:33N 46°32' E 032°04'8 7.7
2014-Oct-18 00:33N 46°33' E 032°15'138 3.4
2014-Oct-16 08:23N 47°43' E 035°09'5 6.3
2014-Oct-16 07:33N 47°48' E 035°10'3 3.3
2014-Oct-16 06:33N 47°50' E 035°06'2 1.6
2014-Oct-16 05:33N 47°52' E 035°05'2 1.8
2014-Oct-16 04:31N 47°54' E 035°06'0 0.0
2014-Oct-16 03:31N 47°54' E 035°06'0 0.0
2014-Oct-16 02:30N 47°54' E 035°06'0 0.0
2014-Oct-16 01:30N 47°54' E 035°06'0 0.0
2014-Oct-16 00:30N 47°54' E 035°06'0 0.0
2014-Oct-15 23:30N 47°54' E 035°06'0 0.0
2014-Oct-15 22:30N 47°54' E 035°06'0 0.0
2014-Oct-15 21:30N 47°54' E 035°06'0 0.0
2014-Oct-15 20:30N 47°54' E 035°06'0 0.0
2014-Oct-15 19:30N 47°54' E 035°06'0 0.0
2014-Oct-15 18:30N 47°54' E 035°06'0 0.0
2014-Oct-15 17:30N 47°54' E 035°06'0 0.0
2014-Oct-15 16:30N 47°54' E 035°06'0 0.1
2014-Oct-15 15:33N 47°54' E 035°06'  
2014-Oct-11 07:33N 47°53' E 035°06'1 1.1
2014-Oct-11 06:33N 47°52' E 035°05'1 1.5
2014-Oct-11 05:33N 47°50' E 035°06'3 2.8
2014-Oct-11 04:29N 47°49' E 035°09'0 0.1
2014-Oct-11 03:29N 47°49' E 035°09'0 0.2
2014-Oct-11 02:28N 47°48' E 035°09'0 0.0
2014-Oct-11 01:28N 47°48' E 035°09'0 0.0
2014-Oct-11 00:28N 47°48' E 035°09'0 0.0
2014-Oct-10 23:28N 47°48' E 035°09'0 0.0
2014-Oct-10 22:28N 47°48' E 035°09'0 0.0
2014-Oct-10 21:28N 47°48' E 035°09'0 0.0
2014-Oct-10 20:28N 47°48' E 035°09'0 0.0
2014-Oct-10 19:33N 47°48' E 035°09'6 5.6
2014-Oct-10 18:33N 47°43' E 035°08'144 4.5
2014-Oct-09 10:33N 46°32' E 032°03'8 8.3
2014-Oct-09 09:34N 46°35' E 031°52'34 7.7
2014-Oct-09 05:10N 46°34' E 031°03'  

Dump ship's entire track history